sensor_id;sensor_type;location;lat;lon;timestamp;P1;durP1;ratioP1;P2;durP2;ratioP2
10122;SDS011;5101;49.038;8.710;2023-05-02T00:00:22;3.67;;;3.25;;
10122;SDS011;5101;49.038;8.710;2023-05-02T00:02:48;3.35;;;2.90;;
10122;SDS011;5101;49.038;8.710;2023-05-02T00:05:14;3.40;;;3.20;;
10122;SDS011;5101;49.038;8.710;2023-05-02T00:07:39;3.38;;;3.17;;
10122;SDS011;5101;49.038;8.710;2023-05-02T00:10:05;4.57;;;3.30;;
10122;SDS011;5101;49.038;8.710;2023-05-02T00:12:32;4.18;;;3.33;;
10122;SDS011;5101;49.038;8.710;2023-05-02T00:14:58;4.20;;;3.15;;
10122;SDS011;5101;49.038;8.710;2023-05-02T00:17:24;3.97;;;3.35;;
10122;SDS011;5101;49.038;8.710;2023-05-02T00:19:49;4.40;;;3.42;;
10122;SDS011;5101;49.038;8.710;2023-05-02T00:22:15;4.65;;;3.22;;
10122;SDS011;5101;49.038;8.710;2023-05-02T00:24:40;3.90;;;3.60;;
10122;SDS011;5101;49.038;8.710;2023-05-02T00:27:05;4.10;;;3.47;;
10122;SDS011;5101;49.038;8.710;2023-05-02T00:29:31;4.53;;;3.30;;
10122;SDS011;5101;49.038;8.710;2023-05-02T00:31:57;3.50;;;3.20;;
10122;SDS011;5101;49.038;8.710;2023-05-02T00:34:23;3.15;;;2.95;;
10122;SDS011;5101;49.038;8.710;2023-05-02T00:36:53;3.35;;;3.05;;
10122;SDS011;5101;49.038;8.710;2023-05-02T00:39:18;3.60;;;3.25;;
10122;SDS011;5101;49.038;8.710;2023-05-02T00:41:43;3.28;;;3.08;;
10122;SDS011;5101;49.038;8.710;2023-05-02T00:44:09;3.70;;;3.40;;
10122;SDS011;5101;49.038;8.710;2023-05-02T00:46:34;4.35;;;3.95;;
10122;SDS011;5101;49.038;8.710;2023-05-02T00:49:00;4.10;;;3.80;;
10122;SDS011;5101;49.038;8.710;2023-05-02T00:51:26;4.18;;;3.63;;
10122;SDS011;5101;49.038;8.710;2023-05-02T00:53:51;5.25;;;4.13;;
10122;SDS011;5101;49.038;8.710;2023-05-02T00:56:17;4.30;;;4.00;;
10122;SDS011;5101;49.038;8.710;2023-05-02T00:58:43;4.88;;;4.38;;
10122;SDS011;5101;49.038;8.710;2023-05-02T01:03:45;4.10;;;3.80;;
10122;SDS011;5101;49.038;8.710;2023-05-02T01:11:52;3.60;;;3.30;;
10122;SDS011;5101;49.038;8.710;2023-05-02T01:14:28;3.58;;;3.28;;
10122;SDS011;5101;49.038;8.710;2023-05-02T01:16:57;3.95;;;3.65;;
10122;SDS011;5101;49.038;8.710;2023-05-02T01:19:28;3.65;;;3.25;;
10122;SDS011;5101;49.038;8.710;2023-05-02T01:22:00;4.30;;;3.95;;
10122;SDS011;5101;49.038;8.710;2023-05-02T01:24:29;4.72;;;3.75;;
10122;SDS011;5101;49.038;8.710;2023-05-02T01:27:03;4.05;;;3.75;;
10122;SDS011;5101;49.038;8.710;2023-05-02T01:29:38;3.97;;;3.60;;
10122;SDS011;5101;49.038;8.710;2023-05-02T01:32:05;3.97;;;3.60;;
10122;SDS011;5101;49.038;8.710;2023-05-02T01:34:32;4.47;;;4.07;;
10122;SDS011;5101;49.038;8.710;2023-05-02T01:37:02;4.78;;;4.07;;
10122;SDS011;5101;49.038;8.710;2023-05-02T01:39:29;4.10;;;3.80;;
10122;SDS011;5101;49.038;8.710;2023-05-02T01:41:56;4.20;;;3.83;;
10122;SDS011;5101;49.038;8.710;2023-05-02T01:44:26;4.35;;;4.05;;
10122;SDS011;5101;49.038;8.710;2023-05-02T01:46:54;3.97;;;3.60;;
10122;SDS011;5101;49.038;8.710;2023-05-02T01:49:20;4.30;;;4.00;;
10122;SDS011;5101;49.038;8.710;2023-05-02T01:51:48;4.07;;;3.78;;
10122;SDS011;5101;49.038;8.710;2023-05-02T01:54:15;5.05;;;4.07;;
10122;SDS011;5101;49.038;8.710;2023-05-02T01:56:44;4.10;;;3.80;;
10122;SDS011;5101;49.038;8.710;2023-05-02T01:59:11;4.20;;;3.78;;
10122;SDS011;5101;49.038;8.710;2023-05-02T02:01:39;4.25;;;3.85;;
10122;SDS011;5101;49.038;8.710;2023-05-02T02:04:08;4.55;;;4.15;;
10122;SDS011;5101;49.038;8.710;2023-05-02T02:06:35;4.40;;;4.05;;
10122;SDS011;5101;49.038;8.710;2023-05-02T02:09:00;4.50;;;4.10;;
10122;SDS011;5101;49.038;8.710;2023-05-02T02:11:34;4.22;;;3.92;;
10122;SDS011;5101;49.038;8.710;2023-05-02T02:14:11;4.03;;;3.72;;
10122;SDS011;5101;49.038;8.710;2023-05-02T02:16:42;4.38;;;3.80;;
10122;SDS011;5101;49.038;8.710;2023-05-02T02:19:09;4.72;;;4.28;;
10122;SDS011;5101;49.038;8.710;2023-05-02T02:21:38;4.43;;;4.13;;
10122;SDS011;5101;49.038;8.710;2023-05-02T02:24:06;6.25;;;4.55;;
10122;SDS011;5101;49.038;8.710;2023-05-02T02:26:32;4.97;;;4.38;;
10122;SDS011;5101;49.038;8.710;2023-05-02T02:28:59;5.43;;;4.72;;
10122;SDS011;5101;49.038;8.710;2023-05-02T02:31:32;5.82;;;4.75;;
10122;SDS011;5101;49.038;8.710;2023-05-02T02:33:59;6.93;;;4.68;;
10122;SDS011;5101;49.038;8.710;2023-05-02T02:36:40;4.97;;;4.47;;
10122;SDS011;5101;49.038;8.710;2023-05-02T02:41:55;4.90;;;4.50;;
10122;SDS011;5101;49.038;8.710;2023-05-02T02:44:34;5.25;;;4.75;;
10122;SDS011;5101;49.038;8.710;2023-05-02T02:47:11;5.30;;;4.90;;
10122;SDS011;5101;49.038;8.710;2023-05-02T02:55:11;4.78;;;4.35;;
10122;SDS011;5101;49.038;8.710;2023-05-02T03:00:30;5.10;;;4.60;;
10122;SDS011;5101;49.038;8.710;2023-05-02T03:02:57;5.43;;;4.45;;
10122;SDS011;5101;49.038;8.710;2023-05-02T03:05:22;5.70;;;4.80;;
10122;SDS011;5101;49.038;8.710;2023-05-02T03:07:48;5.57;;;4.50;;
10122;SDS011;5101;49.038;8.710;2023-05-02T03:10:15;5.43;;;5.03;;
10122;SDS011;5101;49.038;8.710;2023-05-02T03:12:40;5.25;;;4.75;;
10122;SDS011;5101;49.038;8.710;2023-05-02T03:18:02;5.15;;;4.70;;
10122;SDS011;5101;49.038;8.710;2023-05-02T03:20:27;6.22;;;5.63;;
10122;SDS011;5101;49.038;8.710;2023-05-02T03:22:53;6.45;;;5.85;;
10122;SDS011;5101;49.038;8.710;2023-05-02T03:25:18;8.30;;;6.88;;
10122;SDS011;5101;49.038;8.710;2023-05-02T03:27:44;8.45;;;7.15;;
10122;SDS011;5101;49.038;8.710;2023-05-02T03:30:09;9.57;;;7.72;;
10122;SDS011;5101;49.038;8.710;2023-05-02T03:32:35;10.30;;;7.35;;
10122;SDS011;5101;49.038;8.710;2023-05-02T03:35:00;9.43;;;6.55;;
10122;SDS011;5101;49.038;8.710;2023-05-02T03:37:26;6.97;;;6.38;;
10122;SDS011;5101;49.038;8.710;2023-05-02T03:39:52;8.00;;;6.68;;
10122;SDS011;5101;49.038;8.710;2023-05-02T03:42:17;6.90;;;6.07;;
10122;SDS011;5101;49.038;8.710;2023-05-02T03:44:42;6.60;;;6.00;;
10122;SDS011;5101;49.038;8.710;2023-05-02T03:47:08;7.57;;;6.45;;
10122;SDS011;5101;49.038;8.710;2023-05-02T03:49:33;6.45;;;5.78;;
10122;SDS011;5101;49.038;8.710;2023-05-02T03:52:00;6.68;;;6.05;;
10122;SDS011;5101;49.038;8.710;2023-05-02T03:54:25;7.43;;;6.13;;
10122;SDS011;5101;49.038;8.710;2023-05-02T03:56:52;6.57;;;5.97;;
10122;SDS011;5101;49.038;8.710;2023-05-02T03:59:18;6.60;;;5.70;;
10122;SDS011;5101;49.038;8.710;2023-05-02T04:01:47;6.13;;;5.60;;
10122;SDS011;5101;49.038;8.710;2023-05-02T04:04:14;8.77;;;5.85;;
10122;SDS011;5101;49.038;8.710;2023-05-02T04:06:40;6.60;;;6.00;;
10122;SDS011;5101;49.038;8.710;2023-05-02T04:09:06;6.03;;;5.53;;
10122;SDS011;5101;49.038;8.710;2023-05-02T04:11:31;6.63;;;5.40;;
10122;SDS011;5101;49.038;8.710;2023-05-02T04:13:57;5.85;;;5.10;;
10122;SDS011;5101;49.038;8.710;2023-05-02T04:16:23;6.13;;;5.53;;
10122;SDS011;5101;49.038;8.710;2023-05-02T04:18:49;5.88;;;5.28;;
10122;SDS011;5101;49.038;8.710;2023-05-02T04:21:15;6.25;;;5.45;;
10122;SDS011;5101;49.038;8.710;2023-05-02T04:23:40;6.88;;;5.20;;
10122;SDS011;5101;49.038;8.710;2023-05-02T04:26:06;7.57;;;4.85;;
10122;SDS011;5101;49.038;8.710;2023-05-02T04:28:31;5.43;;;4.90;;
10122;SDS011;5101;49.038;8.710;2023-05-02T04:30:57;5.75;;;5.25;;
10122;SDS011;5101;49.038;8.710;2023-05-02T04:33:22;6.55;;;5.20;;
10122;SDS011;5101;49.038;8.710;2023-05-02T04:35:48;5.88;;;4.75;;
10122;SDS011;5101;49.038;8.710;2023-05-02T04:38:14;5.38;;;4.88;;
10122;SDS011;5101;49.038;8.710;2023-05-02T04:40:39;5.68;;;5.18;;
10122;SDS011;5101;49.038;8.710;2023-05-02T04:43:05;7.10;;;5.15;;
10122;SDS011;5101;49.038;8.710;2023-05-02T04:45:31;6.25;;;5.65;;
10122;SDS011;5101;49.038;8.710;2023-05-02T04:47:59;6.43;;;5.82;;
10122;SDS011;5101;49.038;8.710;2023-05-02T04:50:25;5.75;;;5.25;;
10122;SDS011;5101;49.038;8.710;2023-05-02T04:52:52;6.10;;;5.53;;
10122;SDS011;5101;49.038;8.710;2023-05-02T04:55:17;6.47;;;5.90;;
10122;SDS011;5101;49.038;8.710;2023-05-02T04:57:43;6.18;;;5.57;;
10122;SDS011;5101;49.038;8.710;2023-05-02T05:00:09;6.50;;;5.97;;
10122;SDS011;5101;49.038;8.710;2023-05-02T05:02:35;6.65;;;6.10;;
10122;SDS011;5101;49.038;8.710;2023-05-02T05:05:01;5.78;;;5.28;;
10122;SDS011;5101;49.038;8.710;2023-05-02T05:07:26;6.40;;;5.80;;
10122;SDS011;5101;49.038;8.710;2023-05-02T05:09:52;6.68;;;6.00;;
10122;SDS011;5101;49.038;8.710;2023-05-02T05:12:17;7.78;;;6.78;;
10122;SDS011;5101;49.038;8.710;2023-05-02T05:14:44;6.50;;;5.88;;
10122;SDS011;5101;49.038;8.710;2023-05-02T05:17:09;8.50;;;5.65;;
10122;SDS011;5101;49.038;8.710;2023-05-02T05:19:34;6.20;;;5.60;;
10122;SDS011;5101;49.038;8.710;2023-05-02T05:22:00;6.78;;;6.10;;
10122;SDS011;5101;49.038;8.710;2023-05-02T05:24:25;6.80;;;6.15;;
10122;SDS011;5101;49.038;8.710;2023-05-02T05:26:51;6.45;;;5.82;;
10122;SDS011;5101;49.038;8.710;2023-05-02T05:29:17;7.57;;;6.10;;
10122;SDS011;5101;49.038;8.710;2023-05-02T05:31:43;6.90;;;6.30;;
10122;SDS011;5101;49.038;8.710;2023-05-02T05:34:08;7.47;;;6.18;;
10122;SDS011;5101;49.038;8.710;2023-05-02T05:36:34;7.97;;;7.18;;
10122;SDS011;5101;49.038;8.710;2023-05-02T05:39:00;7.05;;;6.45;;
10122;SDS011;5101;49.038;8.710;2023-05-02T05:41:25;11.32;;;6.50;;
10122;SDS011;5101;49.038;8.710;2023-05-02T05:43:51;8.35;;;6.13;;
10122;SDS011;5101;49.038;8.710;2023-05-02T05:46:16;7.50;;;6.38;;
10122;SDS011;5101;49.038;8.710;2023-05-02T05:48:42;9.30;;;6.03;;
10122;SDS011;5101;49.038;8.710;2023-05-02T05:51:07;6.13;;;5.40;;
10122;SDS011;5101;49.038;8.710;2023-05-02T05:53:32;6.95;;;6.25;;
10122;SDS011;5101;49.038;8.710;2023-05-02T05:55:58;7.10;;;5.82;;
10122;SDS011;5101;49.038;8.710;2023-05-02T05:58:31;5.95;;;5.45;;
10122;SDS011;5101;49.038;8.710;2023-05-02T06:00:57;6.88;;;6.13;;
10122;SDS011;5101;49.038;8.710;2023-05-02T06:03:22;10.32;;;6.10;;
10122;SDS011;5101;49.038;8.710;2023-05-02T06:05:48;7.28;;;6.57;;
10122;SDS011;5101;49.038;8.710;2023-05-02T06:08:13;7.30;;;6.65;;
10122;SDS011;5101;49.038;8.710;2023-05-02T06:10:39;8.10;;;7.07;;
10122;SDS011;5101;49.038;8.710;2023-05-02T06:13:05;7.53;;;6.55;;
10122;SDS011;5101;49.038;8.710;2023-05-02T06:15:32;7.07;;;6.00;;
10122;SDS011;5101;49.038;8.710;2023-05-02T06:17:58;7.30;;;6.63;;
10122;SDS011;5101;49.038;8.710;2023-05-02T06:20:24;8.27;;;6.35;;
10122;SDS011;5101;49.038;8.710;2023-05-02T06:22:50;10.18;;;7.22;;
10122;SDS011;5101;49.038;8.710;2023-05-02T06:25:15;7.90;;;7.10;;
10122;SDS011;5101;49.038;8.710;2023-05-02T06:27:41;8.85;;;7.30;;
10122;SDS011;5101;49.038;8.710;2023-05-02T06:30:06;8.25;;;7.30;;
10122;SDS011;5101;49.038;8.710;2023-05-02T06:32:32;13.70;;;8.20;;
10122;SDS011;5101;49.038;8.710;2023-05-02T06:34:58;8.10;;;7.28;;
10122;SDS011;5101;49.038;8.710;2023-05-02T06:37:23;7.90;;;7.20;;
10122;SDS011;5101;49.038;8.710;2023-05-02T06:39:49;8.25;;;7.25;;
10122;SDS011;5101;49.038;8.710;2023-05-02T06:42:15;8.38;;;7.57;;
10122;SDS011;5101;49.038;8.710;2023-05-02T06:44:40;10.18;;;8.40;;
10122;SDS011;5101;49.038;8.710;2023-05-02T06:47:06;8.00;;;7.20;;
10122;SDS011;5101;49.038;8.710;2023-05-02T06:49:32;9.55;;;8.57;;
10122;SDS011;5101;49.038;8.710;2023-05-02T06:51:58;10.02;;;9.13;;
10122;SDS011;5101;49.038;8.710;2023-05-02T06:54:23;11.15;;;10.15;;
10122;SDS011;5101;49.038;8.710;2023-05-02T06:56:49;13.13;;;11.98;;
10122;SDS011;5101;49.038;8.710;2023-05-02T06:59:18;15.15;;;13.63;;
10122;SDS011;5101;49.038;8.710;2023-05-02T07:01:43;15.60;;;14.00;;
10122;SDS011;5101;49.038;8.710;2023-05-02T07:04:09;17.23;;;15.40;;
10122;SDS011;5101;49.038;8.710;2023-05-02T07:06:35;17.75;;;15.95;;
10122;SDS011;5101;49.038;8.710;2023-05-02T07:09:00;17.15;;;15.55;;
10122;SDS011;5101;49.038;8.710;2023-05-02T07:11:26;15.50;;;14.10;;
10122;SDS011;5101;49.038;8.710;2023-05-02T07:13:52;16.92;;;15.13;;
10122;SDS011;5101;49.038;8.710;2023-05-02T07:16:17;17.08;;;15.38;;
10122;SDS011;5101;49.038;8.710;2023-05-02T07:18:43;18.55;;;16.65;;
10122;SDS011;5101;49.038;8.710;2023-05-02T07:21:12;17.33;;;15.73;;
10122;SDS011;5101;49.038;8.710;2023-05-02T07:23:37;17.98;;;16.08;;
10122;SDS011;5101;49.038;8.710;2023-05-02T07:26:03;16.80;;;15.25;;
10122;SDS011;5101;49.038;8.710;2023-05-02T07:28:32;18.27;;;15.90;;
10122;SDS011;5101;49.038;8.710;2023-05-02T07:30:57;17.98;;;16.13;;
10122;SDS011;5101;49.038;8.710;2023-05-02T07:33:23;18.40;;;16.35;;
10122;SDS011;5101;49.038;8.710;2023-05-02T07:35:49;20.20;;;16.40;;
10122;SDS011;5101;49.038;8.710;2023-05-02T07:38:15;18.00;;;16.15;;
10122;SDS011;5101;49.038;8.710;2023-05-02T07:40:41;18.13;;;15.38;;
10122;SDS011;5101;49.038;8.710;2023-05-02T07:43:07;16.73;;;15.05;;
10122;SDS011;5101;49.038;8.710;2023-05-02T07:45:33;16.65;;;14.93;;
10122;SDS011;5101;49.038;8.710;2023-05-02T07:47:59;16.85;;;15.23;;
10122;SDS011;5101;49.038;8.710;2023-05-02T07:50:25;17.40;;;15.60;;
10122;SDS011;5101;49.038;8.710;2023-05-02T07:52:51;17.25;;;15.55;;
10122;SDS011;5101;49.038;8.710;2023-05-02T07:55:17;17.80;;;15.93;;
10122;SDS011;5101;49.038;8.710;2023-05-02T07:57:42;17.63;;;15.93;;
10122;SDS011;5101;49.038;8.710;2023-05-02T08:00:08;18.35;;;16.65;;
10122;SDS011;5101;49.038;8.710;2023-05-02T08:02:34;20.45;;;18.02;;
10122;SDS011;5101;49.038;8.710;2023-05-02T08:05:03;20.08;;;18.13;;
10122;SDS011;5101;49.038;8.710;2023-05-02T08:07:28;18.35;;;16.63;;
10122;SDS011;5101;49.038;8.710;2023-05-02T08:09:55;19.45;;;17.55;;
10122;SDS011;5101;49.038;8.710;2023-05-02T08:12:21;20.15;;;18.13;;
10122;SDS011;5101;49.038;8.710;2023-05-02T08:14:46;19.35;;;17.45;;
10122;SDS011;5101;49.038;8.710;2023-05-02T08:17:12;19.13;;;17.10;;
10122;SDS011;5101;49.038;8.710;2023-05-02T08:19:37;19.85;;;17.77;;
10122;SDS011;5101;49.038;8.710;2023-05-02T08:22:02;19.10;;;16.35;;
10122;SDS011;5101;49.038;8.710;2023-05-02T08:24:28;19.13;;;17.23;;
10122;SDS011;5101;49.038;8.710;2023-05-02T08:26:55;17.48;;;15.90;;
10122;SDS011;5101;49.038;8.710;2023-05-02T08:29:20;19.90;;;17.90;;
10122;SDS011;5101;49.038;8.710;2023-05-02T08:31:47;19.33;;;17.10;;
10122;SDS011;5101;49.038;8.710;2023-05-02T08:34:12;20.38;;;18.48;;
10122;SDS011;5101;49.038;8.710;2023-05-02T08:36:38;20.38;;;18.30;;
10122;SDS011;5101;49.038;8.710;2023-05-02T08:39:03;19.20;;;17.42;;
10122;SDS011;5101;49.038;8.710;2023-05-02T08:41:29;19.52;;;17.65;;
10122;SDS011;5101;49.038;8.710;2023-05-02T08:43:55;18.60;;;16.85;;
10122;SDS011;5101;49.038;8.710;2023-05-02T08:46:21;19.63;;;17.67;;
10122;SDS011;5101;49.038;8.710;2023-05-02T08:48:47;20.20;;;18.20;;
10122;SDS011;5101;49.038;8.710;2023-05-02T08:51:14;19.95;;;18.05;;
10122;SDS011;5101;49.038;8.710;2023-05-02T08:53:41;20.55;;;18.55;;
10122;SDS011;5101;49.038;8.710;2023-05-02T08:56:08;20.23;;;18.33;;
10122;SDS011;5101;49.038;8.710;2023-05-02T08:58:37;19.63;;;17.67;;
10122;SDS011;5101;49.038;8.710;2023-05-02T09:01:08;19.20;;;17.40;;
10122;SDS011;5101;49.038;8.710;2023-05-02T09:03:46;20.75;;;18.85;;
10122;SDS011;5101;49.038;8.710;2023-05-02T09:06:14;20.10;;;18.27;;
10122;SDS011;5101;49.038;8.710;2023-05-02T09:08:42;19.55;;;17.65;;
10122;SDS011;5101;49.038;8.710;2023-05-02T09:11:09;19.75;;;17.80;;
10122;SDS011;5101;49.038;8.710;2023-05-02T09:16:15;19.83;;;17.92;;
10122;SDS011;5101;49.038;8.710;2023-05-02T09:18:48;22.05;;;19.85;;
10122;SDS011;5101;49.038;8.710;2023-05-02T09:21:19;22.33;;;20.23;;
10122;SDS011;5101;49.038;8.710;2023-05-02T09:23:53;21.50;;;19.35;;
10122;SDS011;5101;49.038;8.710;2023-05-02T09:26:23;21.60;;;19.70;;
10122;SDS011;5101;49.038;8.710;2023-05-02T09:28:52;21.17;;;19.13;;
10122;SDS011;5101;49.038;8.710;2023-05-02T09:31:20;22.75;;;20.65;;
10122;SDS011;5101;49.038;8.710;2023-05-02T09:33:47;22.92;;;20.70;;
10122;SDS011;5101;49.038;8.710;2023-05-02T09:36:14;21.65;;;19.40;;
10122;SDS011;5101;49.038;8.710;2023-05-02T09:38:41;21.42;;;19.33;;
10122;SDS011;5101;49.038;8.710;2023-05-02T09:41:07;20.92;;;18.83;;
10122;SDS011;5101;49.038;8.710;2023-05-02T09:43:32;22.55;;;20.35;;
10122;SDS011;5101;49.038;8.710;2023-05-02T09:45:59;23.23;;;20.77;;
10122;SDS011;5101;49.038;8.710;2023-05-02T09:48:26;22.02;;;20.02;;
10122;SDS011;5101;49.038;8.710;2023-05-02T09:50:52;22.50;;;20.40;;
10122;SDS011;5101;49.038;8.710;2023-05-02T09:53:18;21.98;;;19.73;;
10122;SDS011;5101;49.038;8.710;2023-05-02T09:55:44;21.20;;;19.08;;
10122;SDS011;5101;49.038;8.710;2023-05-02T09:58:19;21.45;;;19.42;;
10122;SDS011;5101;49.038;8.710;2023-05-02T10:00:46;20.77;;;18.85;;
10122;SDS011;5101;49.038;8.710;2023-05-02T10:03:16;20.15;;;18.25;;
10122;SDS011;5101;49.038;8.710;2023-05-02T10:05:43;21.08;;;19.05;;
10122;SDS011;5101;49.038;8.710;2023-05-02T10:08:10;20.73;;;18.77;;
10122;SDS011;5101;49.038;8.710;2023-05-02T10:10:37;20.77;;;18.95;;
10122;SDS011;5101;49.038;8.710;2023-05-02T10:13:04;20.02;;;18.15;;
10122;SDS011;5101;49.038;8.710;2023-05-02T10:15:33;21.67;;;19.55;;
10122;SDS011;5101;49.038;8.710;2023-05-02T10:18:02;20.60;;;18.63;;
10122;SDS011;5101;49.038;8.710;2023-05-02T10:20:37;21.77;;;19.80;;
10122;SDS011;5101;49.038;8.710;2023-05-02T10:23:19;19.88;;;18.08;;
10122;SDS011;5101;49.038;8.710;2023-05-02T10:25:46;19.95;;;18.15;;
10122;SDS011;5101;49.038;8.710;2023-05-02T10:28:12;20.48;;;18.58;;
10122;SDS011;5101;49.038;8.710;2023-05-02T10:30:38;20.17;;;18.27;;
10122;SDS011;5101;49.038;8.710;2023-05-02T10:33:05;21.60;;;19.60;;
10122;SDS011;5101;49.038;8.710;2023-05-02T10:35:30;21.27;;;19.17;;
10122;SDS011;5101;49.038;8.710;2023-05-02T10:37:56;22.63;;;20.48;;
10122;SDS011;5101;49.038;8.710;2023-05-02T10:40:23;21.73;;;19.63;;
10122;SDS011;5101;49.038;8.710;2023-05-02T10:42:49;22.60;;;20.50;;
10122;SDS011;5101;49.038;8.710;2023-05-02T10:45:32;23.55;;;21.33;;
10122;SDS011;5101;49.038;8.710;2023-05-02T10:50:49;21.88;;;19.70;;
10122;SDS011;5101;49.038;8.710;2023-05-02T10:56:12;21.40;;;18.83;;
10122;SDS011;5101;49.038;8.710;2023-05-02T10:58:41;23.38;;;21.17;;
10122;SDS011;5101;49.038;8.710;2023-05-02T11:03:52;22.63;;;20.42;;
10122;SDS011;5101;49.038;8.710;2023-05-02T11:06:28;22.70;;;20.30;;
10122;SDS011;5101;49.038;8.710;2023-05-02T11:09:28;22.95;;;20.50;;
10122;SDS011;5101;49.038;8.710;2023-05-02T11:11:47;25.25;;;22.58;;
10122;SDS011;5101;49.038;8.710;2023-05-02T11:19:22;21.67;;;19.38;;
10122;SDS011;5101;49.038;8.710;2023-05-02T11:21:49;22.23;;;19.83;;
10122;SDS011;5101;49.038;8.710;2023-05-02T11:29:55;18.52;;;16.75;;
10122;SDS011;5101;49.038;8.710;2023-05-02T11:37:55;18.38;;;16.38;;
10122;SDS011;5101;49.038;8.710;2023-05-02T11:40:21;18.10;;;16.25;;
10122;SDS011;5101;49.038;8.710;2023-05-02T11:42:47;16.92;;;15.30;;
10122;SDS011;5101;49.038;8.710;2023-05-02T11:45:12;16.70;;;15.10;;
10122;SDS011;5101;49.038;8.710;2023-05-02T11:47:39;16.52;;;14.95;;
10122;SDS011;5101;49.038;8.710;2023-05-02T11:50:06;17.98;;;15.98;;
10122;SDS011;5101;49.038;8.710;2023-05-02T11:52:36;16.95;;;15.35;;
10122;SDS011;5101;49.038;8.710;2023-05-02T11:55:06;16.48;;;14.85;;
10122;SDS011;5101;49.038;8.710;2023-05-02T11:57:34;16.90;;;15.20;;
10122;SDS011;5101;49.038;8.710;2023-05-02T12:00:00;17.20;;;15.50;;
10122;SDS011;5101;49.038;8.710;2023-05-02T12:02:34;18.73;;;16.92;;
10122;SDS011;5101;49.038;8.710;2023-05-02T12:05:01;17.40;;;15.50;;
10122;SDS011;5101;49.038;8.710;2023-05-02T12:10:03;17.35;;;15.55;;
10122;SDS011;5101;49.038;8.710;2023-05-02T12:12:29;19.48;;;15.73;;
10122;SDS011;5101;49.038;8.710;2023-05-02T12:14:55;15.63;;;14.13;;
10122;SDS011;5101;49.038;8.710;2023-05-02T12:17:21;16.27;;;14.65;;
10122;SDS011;5101;49.038;8.710;2023-05-02T12:19:47;14.30;;;12.85;;
10122;SDS011;5101;49.038;8.710;2023-05-02T12:22:13;15.25;;;13.70;;
10122;SDS011;5101;49.038;8.710;2023-05-02T12:24:39;13.02;;;11.40;;
10122;SDS011;5101;49.038;8.710;2023-05-02T12:27:09;10.60;;;9.32;;
10122;SDS011;5101;49.038;8.710;2023-05-02T12:29:39;12.52;;;11.32;;
10122;SDS011;5101;49.038;8.710;2023-05-02T12:32:05;12.35;;;11.25;;
10122;SDS011;5101;49.038;8.710;2023-05-02T12:34:34;11.73;;;10.50;;
10122;SDS011;5101;49.038;8.710;2023-05-02T12:37:00;12.70;;;11.25;;
10122;SDS011;5101;49.038;8.710;2023-05-02T12:39:34;12.20;;;11.07;;
10122;SDS011;5101;49.038;8.710;2023-05-02T12:42:07;13.38;;;12.18;;
10122;SDS011;5101;49.038;8.710;2023-05-02T12:44:34;14.68;;;13.20;;
10122;SDS011;5101;49.038;8.710;2023-05-02T12:47:02;14.65;;;12.35;;
10122;SDS011;5101;49.038;8.710;2023-05-02T12:49:28;12.85;;;11.63;;
10122;SDS011;5101;49.038;8.710;2023-05-02T12:51:54;12.25;;;11.05;;
10122;SDS011;5101;49.038;8.710;2023-05-02T12:54:20;13.13;;;11.07;;
10122;SDS011;5101;49.038;8.710;2023-05-02T12:56:46;12.88;;;10.82;;
10122;SDS011;5101;49.038;8.710;2023-05-02T12:59:25;13.27;;;11.98;;
10122;SDS011;5101;49.038;8.710;2023-05-02T13:01:52;12.00;;;10.80;;
10122;SDS011;5101;49.038;8.710;2023-05-02T13:04:18;10.82;;;9.60;;
10122;SDS011;5101;49.038;8.710;2023-05-02T13:06:43;10.50;;;9.50;;
10122;SDS011;5101;49.038;8.710;2023-05-02T13:09:09;9.98;;;8.98;;
10122;SDS011;5101;49.038;8.710;2023-05-02T13:11:34;11.68;;;10.57;;
10122;SDS011;5101;49.038;8.710;2023-05-02T13:14:00;10.80;;;9.65;;
10122;SDS011;5101;49.038;8.710;2023-05-02T13:16:29;13.60;;;10.43;;
10122;SDS011;5101;49.038;8.710;2023-05-02T13:18:54;10.90;;;9.80;;
10122;SDS011;5101;49.038;8.710;2023-05-02T13:21:20;10.40;;;8.52;;
10122;SDS011;5101;49.038;8.710;2023-05-02T13:23:48;10.75;;;9.65;;
10122;SDS011;5101;49.038;8.710;2023-05-02T13:26:14;12.25;;;9.25;;
10122;SDS011;5101;49.038;8.710;2023-05-02T13:28:40;10.20;;;9.23;;
10122;SDS011;5101;49.038;8.710;2023-05-02T13:31:06;10.70;;;9.63;;
10122;SDS011;5101;49.038;8.710;2023-05-02T13:33:31;8.95;;;8.10;;
10122;SDS011;5101;49.038;8.710;2023-05-02T13:35:57;8.85;;;7.85;;
10122;SDS011;5101;49.038;8.710;2023-05-02T13:38:23;8.90;;;8.02;;
10122;SDS011;5101;49.038;8.710;2023-05-02T13:40:48;9.95;;;7.55;;
10122;SDS011;5101;49.038;8.710;2023-05-02T13:43:14;8.60;;;7.68;;
10122;SDS011;5101;49.038;8.710;2023-05-02T13:45:39;7.65;;;6.90;;
10122;SDS011;5101;49.038;8.710;2023-05-02T13:48:05;7.55;;;6.85;;
10122;SDS011;5101;49.038;8.710;2023-05-02T13:50:30;6.80;;;6.13;;
10122;SDS011;5101;49.038;8.710;2023-05-02T13:53:01;6.32;;;5.72;;
10122;SDS011;5101;49.038;8.710;2023-05-02T13:55:27;6.85;;;6.13;;
10122;SDS011;5101;49.038;8.710;2023-05-02T13:57:52;6.70;;;6.10;;
10122;SDS011;5101;49.038;8.710;2023-05-02T14:00:18;6.75;;;5.80;;
10122;SDS011;5101;49.038;8.710;2023-05-02T14:02:45;5.72;;;5.22;;
10122;SDS011;5101;49.038;8.710;2023-05-02T14:05:12;4.97;;;4.53;;
10122;SDS011;5101;49.038;8.710;2023-05-02T14:07:38;6.82;;;4.85;;
10122;SDS011;5101;49.038;8.710;2023-05-02T14:10:03;5.13;;;4.63;;
10122;SDS011;5101;49.038;8.710;2023-05-02T14:12:29;4.88;;;4.40;;
10122;SDS011;5101;49.038;8.710;2023-05-02T14:14:55;5.10;;;4.47;;
10122;SDS011;5101;49.038;8.710;2023-05-02T14:17:21;5.60;;;4.10;;
10122;SDS011;5101;49.038;8.710;2023-05-02T14:19:49;5.10;;;4.60;;
10122;SDS011;5101;49.038;8.710;2023-05-02T14:22:15;3.50;;;2.72;;
10122;SDS011;5101;49.038;8.710;2023-05-02T14:24:40;2.97;;;2.70;;
10122;SDS011;5101;49.038;8.710;2023-05-02T14:27:06;3.50;;;2.38;;
10122;SDS011;5101;49.038;8.710;2023-05-02T14:29:36;3.13;;;2.88;;
10122;SDS011;5101;49.038;8.710;2023-05-02T14:32:03;4.93;;;2.95;;
10122;SDS011;5101;49.038;8.710;2023-05-02T14:34:29;3.40;;;3.10;;
10122;SDS011;5101;49.038;8.710;2023-05-02T14:36:54;3.03;;;2.80;;
10122;SDS011;5101;49.038;8.710;2023-05-02T14:39:20;3.40;;;2.72;;
10122;SDS011;5101;49.038;8.710;2023-05-02T14:41:46;4.13;;;3.28;;
10122;SDS011;5101;49.038;8.710;2023-05-02T14:44:11;4.00;;;3.30;;
10122;SDS011;5101;49.038;8.710;2023-05-02T14:46:37;4.38;;;3.33;;
10122;SDS011;5101;49.038;8.710;2023-05-02T14:49:02;4.75;;;2.63;;
10122;SDS011;5101;49.038;8.710;2023-05-02T14:51:28;3.03;;;2.72;;
10122;SDS011;5101;49.038;8.710;2023-05-02T14:53:53;2.40;;;2.17;;
10122;SDS011;5101;49.038;8.710;2023-05-02T14:56:18;2.63;;;2.42;;
10122;SDS011;5101;49.038;8.710;2023-05-02T14:58:44;2.55;;;2.35;;
10122;SDS011;5101;49.038;8.710;2023-05-02T15:01:17;2.58;;;2.10;;
10122;SDS011;5101;49.038;8.710;2023-05-02T15:03:43;2.00;;;1.90;;
10122;SDS011;5101;49.038;8.710;2023-05-02T15:06:09;2.15;;;1.38;;
10122;SDS011;5101;49.038;8.710;2023-05-02T15:08:35;1.50;;;1.40;;
10122;SDS011;5101;49.038;8.710;2023-05-02T15:11:01;2.75;;;2.38;;
10122;SDS011;5101;49.038;8.710;2023-05-02T15:13:26;2.25;;;2.03;;
10122;SDS011;5101;49.038;8.710;2023-05-02T15:15:52;1.90;;;1.80;;
10122;SDS011;5101;49.038;8.710;2023-05-02T15:18:19;2.58;;;2.38;;
10122;SDS011;5101;49.038;8.710;2023-05-02T15:20:45;2.10;;;1.90;;
10122;SDS011;5101;49.038;8.710;2023-05-02T15:23:11;2.90;;;1.75;;
10122;SDS011;5101;49.038;8.710;2023-05-02T15:25:36;1.40;;;1.30;;
10122;SDS011;5101;49.038;8.710;2023-05-02T15:28:02;1.98;;;1.60;;
10122;SDS011;5101;49.038;8.710;2023-05-02T15:30:28;2.35;;;2.15;;
10122;SDS011;5101;49.038;8.710;2023-05-02T15:32:53;7.07;;;2.40;;
10122;SDS011;5101;49.038;8.710;2023-05-02T15:35:19;2.60;;;2.40;;
10122;SDS011;5101;49.038;8.710;2023-05-02T15:37:44;2.00;;;1.83;;
10122;SDS011;5101;49.038;8.710;2023-05-02T15:40:10;4.00;;;2.17;;